Time;durP1;ratioP1;P1;durP2;ratioP2;P2;SDS_P1;SDS_P2;PMS_P1;PMS_P2;Temp;Humidity;BMP_temperature;BMP_pressure;BME280_temperature;BME280_humidity;BME280_pressure;Samples;Min_cycle;Max_cycle;Signal;HPM_P1;HPM_P2
2022/04/09 00:02:14;;;;;;;6.45;1.13;;;4.50;99.90;;;;;;4952554;28;20046;-71
2022/04/09 00:04:40;;;;;;;8.07;1.20;;;5.30;99.90;;;;;;4953930;28;20192;-72
2022/04/09 00:07:06;;;;;;;6.53;1.63;;;5.20;99.90;;;;;;4950578;28;20122;-71
2022/04/09 00:09:32;;;;;;;4.28;1.33;;;4.40;99.90;;;;;;4967551;28;20039;-72
2022/04/09 00:11:57;;;;;;;1.95;1.05;;;5.10;99.90;;;;;;4952353;28;20480;-71
2022/04/09 00:14:24;;;;;;;5.43;1.20;;;4.50;99.90;;;;;;4952229;28;20034;-72
2022/04/09 00:16:50;;;;;;;10.70;1.80;;;4.60;99.90;;;;;;4969441;28;20488;-71
2022/04/09 00:19:16;;;;;;;6.43;1.58;;;4.40;99.90;;;;;;4967328;28;20042;-72
2022/04/09 00:21:41;;;;;;;3.92;1.20;;;4.90;99.90;;;;;;4951884;28;20058;-72
2022/04/09 00:24:08;;;;;;;7.65;1.55;;;4.90;99.90;;;;;;4967953;28;20086;-71
2022/04/09 00:26:34;;;;;;;3.08;1.45;;;4.30;99.90;;;;;;4952025;28;20046;-72
2022/04/09 00:28:59;;;;;;;10.68;1.30;;;5.10;99.90;;;;;;4950272;28;20397;-71
2022/04/09 00:31:25;;;;;;;4.63;1.30;;;4.30;99.90;;;;;;4967223;28;20034;-71
2022/04/09 00:33:51;;;;;;;3.58;1.38;;;4.30;99.90;;;;;;4970072;28;20161;-72
2022/04/09 00:36:16;;;;;;;2.35;1.23;;;4.70;99.90;;;;;;4964100;28;20496;-71
2022/04/09 00:38:42;;;;;;;7.28;1.38;;;4.20;99.90;;;;;;4951170;28;20098;-71
2022/04/09 00:41:11;;;;;;;6.70;1.55;;;4.20;99.90;;;;;;4965486;28;20050;-71
2022/04/09 00:43:40;;;;;;;6.13;1.38;;;4.20;99.90;;;;;;4950746;28;20403;-71
2022/04/09 00:46:07;;;;;;;10.38;1.48;;;4.60;99.90;;;;;;4950959;28;20039;-71
2022/04/09 00:48:36;;;;;;;9.45;1.90;;;4.20;99.90;;;;;;4953180;28;20559;-71
2022/04/09 00:51:03;;;;;;;7.18;1.35;;;4.10;99.90;;;;;;4967518;28;20050;-71
2022/04/09 00:53:34;;;;;;;5.40;1.35;;;4.70;99.90;;;;;;4967422;28;20047;-70
2022/04/09 00:56:13;;;;;;;6.47;1.45;;;4.10;99.90;;;;;;4950580;28;20451;-71
2022/04/09 00:58:55;;;;;;;7.32;1.38;;;4.50;99.90;;;;;;4969181;28;20404;-71
2022/04/09 01:01:28;;;;;;;6.97;0.95;;;4.10;99.90;;;;;;4951123;28;20059;-71
2022/04/09 01:03:55;;;;;;;5.78;1.75;;;4.20;99.90;;;;;;4967210;28;20078;-72
2022/04/09 01:06:21;;;;;;;15.13;1.95;;;4.20;99.90;;;;;;4966171;28;20043;-71
2022/04/09 01:08:47;;;;;;;6.07;1.40;;;4.60;99.90;;;;;;4966707;28;20046;-71
2022/04/09 01:11:13;;;;;;;7.47;1.40;;;4.40;99.90;;;;;;4950336;28;20047;-71
2022/04/09 01:13:40;;;;;;;9.68;1.70;;;4.40;99.90;;;;;;4967589;28;20054;-71
2022/04/09 01:16:07;;;;;;;4.05;1.45;;;4.30;99.90;;;;;;4951605;28;20400;-71
2022/04/09 01:18:33;;;;;;;3.30;1.45;;;4.30;99.90;;;;;;4966827;28;20039;-71
2022/04/09 01:21:04;;;;;;;4.90;1.38;;;4.30;99.90;;;;;;4967257;28;20097;-71
2022/04/09 01:23:31;;;;;;;7.43;1.48;;;4.90;99.90;;;;;;4965186;28;20122;-71
2022/04/09 01:25:58;;;;;;;6.65;1.52;;;4.30;99.90;;;;;;4954882;28;20147;-71
2022/04/09 01:28:27;;;;;;;9.63;1.92;;;4.30;99.90;;;;;;4968724;28;20051;-72
2022/04/09 01:30:54;;;;;;;8.38;2.05;;;4.20;99.90;;;;;;4967781;28;20042;-71
2022/04/09 01:33:22;;;;;;;9.75;1.45;;;4.20;99.90;;;;;;4953727;28;20064;-71
2022/04/09 01:35:48;;;;;;;7.30;2.13;;;4.20;99.90;;;;;;4954870;28;20035;-72
2022/04/09 01:38:15;;;;;;;7.43;1.50;;;4.20;99.90;;;;;;4957753;28;20070;-72
2022/04/09 01:40:41;;;;;;;5.40;1.30;;;4.70;99.90;;;;;;4973601;28;20395;-72
2022/04/09 01:43:07;;;;;;;8.25;3.10;;;4.30;99.90;;;;;;4971412;28;20502;-72
2022/04/09 01:45:34;;;;;;;5.85;1.40;;;5.00;99.90;;;;;;4969611;28;20129;-73
2022/04/09 01:47:59;;;;;;;5.00;1.00;;;5.10;99.90;;;;;;4973933;28;20043;-72
2022/04/09 01:50:29;;;;;;;0.90;0.80;;;4.60;99.90;;;;;;4957492;28;20046;-71
2022/04/09 01:52:56;;;;;;;3.00;0.93;;;5.00;99.90;;;;;;4955368;28;20073;-71
2022/04/09 01:55:22;;;;;;;4.25;1.05;;;4.20;99.90;;;;;;4974249;28;20121;-71
2022/04/09 01:57:48;;;;;;;3.67;0.82;;;4.00;99.90;;;;;;4957514;28;20491;-71
2022/04/09 02:00:16;;;;;;;4.80;0.90;;;4.00;99.90;;;;;;4973932;28;20046;-71
2022/04/09 02:02:42;;;;;;;4.93;1.05;;;4.00;99.90;;;;;;4956046;28;20042;-71
2022/04/09 02:05:11;;;;;;;2.25;0.77;;;4.00;99.90;;;;;;4973867;28;20471;-72
2022/04/09 02:07:37;;;;;;;7.03;1.10;;;4.00;99.90;;;;;;4957757;28;20051;-71
2022/04/09 02:10:05;;;;;;;6.90;1.05;;;4.90;99.90;;;;;;4974766;28;20400;-71
2022/04/09 02:12:31;;;;;;;5.82;1.45;;;4.00;99.90;;;;;;4967485;28;20089;-71
2022/04/09 02:14:57;;;;;;;4.80;1.15;;;4.10;99.90;;;;;;4972130;28;20065;-71
2022/04/09 02:17:23;;;;;;;8.05;1.83;;;4.10;99.90;;;;;;4956679;28;20118;-71
2022/04/09 02:19:49;;;;;;;7.13;1.55;;;4.70;99.90;;;;;;4970258;28;20043;-71
2022/04/09 02:22:15;;;;;;;7.63;1.20;;;4.30;99.90;;;;;;4974255;28;20075;-71
2022/04/09 02:24:41;;;;;;;6.85;1.42;;;4.30;99.90;;;;;;4957933;28;20054;-71
2022/04/09 02:27:06;;;;;;;4.50;1.40;;;4.20;99.90;;;;;;4972629;28;20484;-71
2022/04/09 02:29:32;;;;;;;5.72;1.40;;;4.20;99.90;;;;;;4955588;28;20122;-71
2022/04/09 02:32:01;;;;;;;4.88;1.20;;;4.10;99.90;;;;;;4958670;28;20050;-71
2022/04/09 02:34:26;;;;;;;4.22;1.10;;;4.00;99.90;;;;;;4973147;28;20055;-71
2022/04/09 02:36:52;;;;;;;4.30;1.73;;;4.50;99.90;;;;;;4956546;28;20056;-71
2022/04/09 02:39:21;;;;;;;6.38;1.30;;;3.90;99.90;;;;;;4973148;28;20054;-71
2022/04/09 02:41:48;;;;;;;4.07;1.23;;;4.50;99.90;;;;;;4970279;28;20373;-72
2022/04/09 02:44:14;;;;;;;4.00;0.80;;;4.10;99.90;;;;;;4970465;28;20054;-71
2022/04/09 02:46:40;;;;;;;6.20;1.02;;;3.70;99.90;;;;;;4955628;28;20057;-73
2022/04/09 02:49:06;;;;;;;5.10;1.10;;;3.70;99.90;;;;;;4956019;28;20043;-71
2022/04/09 02:51:33;;;;;;;4.15;1.20;;;4.40;99.90;;;;;;4972002;28;20055;-72
2022/04/09 02:53:58;;;;;;;4.53;1.00;;;3.70;99.90;;;;;;4971200;28;20110;-71
2022/04/09 02:56:24;;;;;;;3.92;0.80;;;3.70;99.90;;;;;;4956253;28;20043;-73
2022/04/09 02:58:50;;;;;;;5.05;0.93;;;4.50;99.90;;;;;;4972078;28;20053;-72
2022/04/09 03:01:16;;;;;;;4.90;0.85;;;3.70;99.90;;;;;;4956634;28;20400;-71
2022/04/09 03:03:41;;;;;;;5.20;1.10;;;3.80;99.90;;;;;;4972232;28;20399;-71
2022/04/09 03:06:07;;;;;;;5.97;1.55;;;4.20;99.90;;;;;;4940403;28;20051;-72
2022/04/09 03:08:33;;;;;;;6.38;1.27;;;4.50;99.90;;;;;;4971545;28;20039;-71
2022/04/09 03:10:58;;;;;;;4.03;1.00;;;4.00;99.90;;;;;;4972810;28;20058;-71
2022/04/09 03:13:24;;;;;;;6.13;1.23;;;3.80;99.90;;;;;;4940485;28;20435;-72
2022/04/09 03:15:50;;;;;;;7.40;1.75;;;3.80;99.90;;;;;;4972434;28;20042;-71
2022/04/09 03:18:16;;;;;;;9.25;1.50;;;4.60;99.90;;;;;;4971675;28;20310;-73
2022/04/09 03:20:41;;;;;;;7.03;1.80;;;3.90;99.90;;;;;;4955635;28;20042;-71
2022/04/09 03:23:07;;;;;;;6.13;1.30;;;3.90;99.90;;;;;;4955835;28;20043;-71
2022/04/09 03:25:33;;;;;;;3.78;1.08;;;3.80;99.90;;;;;;4971542;28;20049;-72
2022/04/09 03:27:58;;;;;;;6.53;1.75;;;3.80;99.90;;;;;;4955445;28;20476;-71
2022/04/09 03:30:24;;;;;;;8.30;1.60;;;4.80;99.90;;;;;;4973032;28;20127;-72
2022/04/09 03:32:50;;;;;;;6.40;1.25;;;4.50;99.90;;;;;;4955158;28;20496;-71
2022/04/09 03:35:16;;;;;;;5.07;1.40;;;4.00;99.90;;;;;;4956148;28;20074;-72
2022/04/09 03:37:42;;;;;;;4.93;1.30;;;3.80;99.90;;;;;;4972183;28;20129;-72
2022/04/09 03:40:09;;;;;;;4.15;1.23;;;5.10;99.90;;;;;;4972216;28;20051;-71
2022/04/09 03:42:34;;;;;;;11.05;1.80;;;3.80;99.90;;;;;;4955501;28;20472;-71
2022/04/09 03:45:00;;;;;;;6.10;1.35;;;4.70;99.90;;;;;;4955585;28;20188;-71
2022/04/09 03:47:26;;;;;;;3.60;1.45;;;3.80;99.90;;;;;;4970660;28;20090;-71
2022/04/09 03:49:52;;;;;;;4.85;1.63;;;3.80;99.90;;;;;;4971883;28;20055;-71
2022/04/09 03:52:18;;;;;;;5.70;1.02;;;3.80;99.90;;;;;;4955124;28;20511;-72
2022/04/09 03:54:43;;;;;;;8.98;1.60;;;4.10;99.90;;;;;;4939728;28;20519;-71
2022/04/09 03:57:09;;;;;;;4.65;1.08;;;4.20;99.90;;;;;;4970564;28;20043;-71
2022/04/09 03:59:35;;;;;;;8.80;1.15;;;3.70;99.90;;;;;;4954742;28;20046;-71
2022/04/09 04:02:01;;;;;;;8.43;2.40;;;4.40;99.90;;;;;;4971685;28;20491;-71
2022/04/09 04:04:27;;;;;;;6.00;1.40;;;3.50;99.90;;;;;;4955406;28;20046;-72
2022/04/09 04:06:53;;;;;;;7.93;1.70;;;3.50;99.90;;;;;;4954575;28;20057;-71
2022/04/09 04:09:18;;;;;;;7.18;1.60;;;3.60;99.90;;;;;;4939321;28;20046;-71
2022/04/09 04:11:45;;;;;;;8.50;1.70;;;4.50;99.90;;;;;;4939500;28;20054;-72
2022/04/09 04:14:11;;;;;;;5.78;2.20;;;3.70;99.90;;;;;;4971094;28;20141;-72
2022/04/09 04:16:38;;;;;;;9.27;1.42;;;3.80;99.90;;;;;;4971061;28;20416;-72
2022/04/09 04:19:04;;;;;;;7.63;1.45;;;3.90;99.90;;;;;;4956051;28;20400;-72
2022/04/09 04:21:30;;;;;;;3.72;1.55;;;3.90;99.90;;;;;;4956043;28;20058;-72
2022/04/09 04:23:56;;;;;;;6.78;1.65;;;4.00;99.90;;;;;;4955969;28;20043;-71
2022/04/09 04:26:22;;;;;;;7.15;1.60;;;3.80;99.90;;;;;;4954958;28;20066;-71
2022/04/09 04:28:51;;;;;;;10.20;1.60;;;4.00;99.90;;;;;;4970724;28;20042;-72
2022/04/09 04:31:18;;;;;;;7.10;1.38;;;3.70;99.90;;;;;;4969156;28;20055;-71
2022/04/09 04:33:44;;;;;;;7.78;1.23;;;4.60;99.90;;;;;;4970589;28;20475;-71
2022/04/09 04:36:10;;;;;;;5.80;1.50;;;3.80;99.90;;;;;;4938598;28;20046;-74
2022/04/09 04:38:36;;;;;;;11.90;1.55;;;4.50;99.90;;;;;;4954209;28;20046;-72
2022/04/09 04:41:04;;;;;;;11.45;1.50;;;3.60;99.90;;;;;;4954383;28;20129;-71
2022/04/09 04:43:30;;;;;;;8.25;1.50;;;4.30;99.90;;;;;;4970760;28;20114;-72
2022/04/09 04:45:56;;;;;;;7.50;1.60;;;3.60;99.90;;;;;;4954084;28;20058;-72
2022/04/09 04:48:22;;;;;;;7.95;1.67;;;4.30;99.90;;;;;;4969476;28;20062;-71
2022/04/09 04:50:48;;;;;;;9.75;1.77;;;3.80;99.90;;;;;;4954503;28;20046;-71
2022/04/09 04:53:14;;;;;;;6.97;2.53;;;3.80;99.90;;;;;;4970818;28;20105;-71
2022/04/09 04:55:40;;;;;;;8.38;1.42;;;4.00;99.90;;;;;;4970750;28;20049;-72
2022/04/09 04:58:06;;;;;;;6.28;1.60;;;4.60;99.90;;;;;;4953701;28;20047;-71
2022/04/09 05:00:33;;;;;;;5.03;1.40;;;3.80;99.90;;;;;;4954658;28;20050;-72
2022/04/09 05:02:59;;;;;;;11.18;2.03;;;3.70;99.90;;;;;;4954858;28;20073;-72
2022/04/09 05:05:25;;;;;;;9.32;2.00;;;3.70;99.90;;;;;;4954492;28;20046;-71
2022/04/09 05:07:52;;;;;;;6.15;1.30;;;4.50;99.90;;;;;;4967851;28;20053;-72
2022/04/09 05:10:21;;;;;;;5.63;1.27;;;4.80;99.90;;;;;;4955607;28;20054;-72
2022/04/09 05:12:47;;;;;;;9.55;1.95;;;4.30;99.90;;;;;;4958349;28;20047;-72
2022/04/09 05:15:14;;;;;;;7.18;1.40;;;3.80;99.90;;;;;;4942123;28;20047;-72
2022/04/09 05:17:41;;;;;;;7.90;2.22;;;4.20;99.90;;;;;;4957763;28;20057;-72
2022/04/09 05:20:09;;;;;;;4.72;1.50;;;3.80;99.90;;;;;;4973293;28;20038;-71
2022/04/09 05:22:36;;;;;;;6.30;1.48;;;3.90;99.90;;;;;;4974224;28;20042;-72
2022/04/09 05:25:03;;;;;;;5.10;1.42;;;4.80;99.90;;;;;;4973887;28;20055;-71
2022/04/09 05:27:29;;;;;;;8.75;1.48;;;3.80;99.90;;;;;;4956627;28;20042;-72
2022/04/09 05:29:55;;;;;;;9.20;1.70;;;3.90;99.90;;;;;;4957280;28;21548;-71
2022/04/09 05:32:22;;;;;;;3.92;1.00;;;4.40;99.90;;;;;;4974012;28;20124;-72
2022/04/09 05:34:48;;;;;;;6.38;1.77;;;4.00;99.90;;;;;;4958235;28;20053;-71
2022/04/09 05:37:14;;;;;;;7.65;1.52;;;4.30;99.90;;;;;;4955113;28;20059;-71
2022/04/09 05:39:42;;;;;;;8.57;1.65;;;4.70;99.90;;;;;;4973857;28;20415;-71
2022/04/09 05:42:09;;;;;;;5.95;1.50;;;5.10;99.90;;;;;;4974204;28;20049;-71
2022/04/09 05:44:34;;;;;;;8.82;1.60;;;4.20;99.90;;;;;;4956871;28;20057;-71
2022/04/09 05:47:00;;;;;;;9.77;1.52;;;4.30;99.90;;;;;;4957149;28;20054;-71
2022/04/09 05:49:26;;;;;;;6.57;1.52;;;4.40;99.90;;;;;;4941664;28;20047;-71
2022/04/09 05:51:52;;;;;;;4.10;1.52;;;4.40;99.90;;;;;;4973715;28;20447;-72
2022/04/09 05:54:18;;;;;;;9.10;1.40;;;4.40;99.90;;;;;;4974335;28;20042;-74
2022/04/09 05:56:44;;;;;;;12.05;1.83;;;4.40;99.90;;;;;;4941032;28;20051;-72
2022/04/09 05:59:10;;;;;;;8.68;1.55;;;4.50;99.90;;;;;;4974850;28;20101;-73
2022/04/09 06:01:35;;;;;;;6.25;1.30;;;4.50;99.90;;;;;;4973321;28;20551;-75
2022/04/09 06:04:01;;;;;;;2.58;1.02;;;4.90;99.90;;;;;;4974625;28;20054;-74
2022/04/09 06:06:27;;;;;;;5.20;1.20;;;4.60;99.90;;;;;;4940882;28;20055;-73
2022/04/09 06:08:53;;;;;;;3.20;1.58;;;4.70;99.90;;;;;;4973106;28;20117;-73
2022/04/09 06:11:19;;;;;;;8.80;1.40;;;4.90;99.90;;;;;;4957874;28;20043;-72
2022/04/09 06:13:45;;;;;;;6.68;1.52;;;5.10;99.90;;;;;;4956786;28;20117;-72
2022/04/09 06:16:11;;;;;;;9.38;1.38;;;4.80;99.90;;;;;;4972747;28;20133;-71
2022/04/09 06:18:38;;;;;;;3.13;0.90;;;5.50;99.90;;;;;;4972860;28;20392;-72
2022/04/09 06:21:04;;;;;;;5.30;1.00;;;4.90;99.90;;;;;;4973239;28;20113;-72
2022/04/09 06:23:30;;;;;;;3.17;1.20;;;5.30;99.90;;;;;;4972668;28;20050;-72
2022/04/09 06:25:56;;;;;;;3.10;0.80;;;5.10;99.90;;;;;;4972460;28;20077;-72
2022/04/09 06:28:22;;;;;;;3.78;0.90;;;5.60;99.90;;;;;;4957039;28;20086;-71
2022/04/09 06:30:48;;;;;;;3.75;1.00;;;5.20;99.90;;;;;;4972744;28;20467;-70
2022/04/09 06:33:13;;;;;;;6.32;1.20;;;5.30;99.90;;;;;;4972791;28;20047;-73
2022/04/09 06:35:39;;;;;;;4.85;1.20;;;5.40;99.90;;;;;;4970599;28;20078;-71
2022/04/09 06:38:05;;;;;;;7.50;1.48;;;5.50;99.90;;;;;;4972934;28;20047;-71
2022/04/09 06:40:31;;;;;;;8.77;1.30;;;5.50;99.90;;;;;;4972721;28;20074;-72
2022/04/09 06:42:57;;;;;;;3.67;1.27;;;5.50;99.90;;;;;;4972885;28;20530;-71
2022/04/09 06:45:23;;;;;;;7.68;1.48;;;5.40;99.90;;;;;;4973453;28;20054;-71
2022/04/09 06:47:49;;;;;;;6.65;1.20;;;5.30;99.90;;;;;;4977781;28;20116;-70
2022/04/09 06:50:15;;;;;;;5.70;1.30;;;5.30;99.90;;;;;;4973396;28;20047;-72
2022/04/09 06:52:41;;;;;;;7.07;1.45;;;5.40;99.90;;;;;;4957169;28;20055;-71
2022/04/09 06:55:10;;;;;;;9.10;1.45;;;5.60;99.90;;;;;;4957763;28;20055;-71
2022/04/09 06:57:38;;;;;;;8.50;1.50;;;5.70;99.90;;;;;;4957226;28;20045;-71
2022/04/09 07:00:07;;;;;;;4.93;1.02;;;6.30;99.90;;;;;;4957717;28;20142;-71
2022/04/09 07:02:33;;;;;;;10.35;1.75;;;6.00;99.90;;;;;;4972932;28;20435;-72
2022/04/09 07:04:59;;;;;;;8.35;1.75;;;6.40;99.90;;;;;;4955275;28;20444;-71
2022/04/09 07:07:26;;;;;;;6.40;1.65;;;6.40;99.90;;;;;;4972301;28;20503;-72
2022/04/09 07:10:12;;;;;;;9.50;1.73;;;6.60;99.90;;;;;;4957477;28;20082;-70
2022/04/09 07:12:39;;;;;;;7.20;1.42;;;6.70;99.90;;;;;;4972377;28;20457;-71
2022/04/09 07:15:06;;;;;;;6.43;1.50;;;6.60;99.90;;;;;;4957100;28;20133;-72
2022/04/09 07:17:32;;;;;;;5.45;1.20;;;6.50;99.90;;;;;;4972596;28;20057;-72
2022/04/09 07:20:05;;;;;;;7.88;1.55;;;6.30;99.90;;;;;;4973093;28;20051;-72
2022/04/09 07:22:32;;;;;;;10.52;1.40;;;6.00;99.90;;;;;;4956745;28;20078;-73
2022/04/09 07:24:58;;;;;;;8.45;1.48;;;5.90;99.90;;;;;;4971702;28;20488;-72
2022/04/09 07:27:40;;;;;;;10.95;1.40;;;6.00;99.90;;;;;;4971211;28;20043;-71
2022/04/09 07:30:11;;;;;;;6.50;1.73;;;6.10;99.90;;;;;;4972514;28;20121;-71
2022/04/09 07:32:37;;;;;;;16.58;2.10;;;6.30;99.90;;;;;;4956548;28;20046;-71
2022/04/09 07:35:03;;;;;;;9.45;1.60;;;6.60;99.90;;;;;;4971023;28;20492;-71
2022/04/09 07:37:29;;;;;;;9.52;1.45;;;6.90;99.90;;;;;;4970901;28;20046;-71
2022/04/09 07:39:55;;;;;;;12.57;1.95;;;7.10;99.90;;;;;;4955296;28;20051;-71
2022/04/09 07:42:22;;;;;;;8.88;1.40;;;7.00;99.90;;;;;;4956272;28;20511;-71
2022/04/09 07:44:48;;;;;;;8.77;1.60;;;6.90;99.90;;;;;;4971495;28;20043;-71
2022/04/09 07:47:14;;;;;;;9.20;2.00;;;6.80;99.90;;;;;;4953931;28;20105;-71
2022/04/09 07:49:44;;;;;;;11.85;1.70;;;6.90;99.90;;;;;;4955398;28;20508;-70
2022/04/09 07:52:12;;;;;;;11.80;1.85;;;7.00;99.90;;;;;;4972041;28;20055;-71
2022/04/09 07:54:38;;;;;;;7.82;1.50;;;7.10;99.90;;;;;;4956790;28;20515;-71
2022/04/09 07:57:04;;;;;;;8.02;1.27;;;7.20;99.90;;;;;;4971253;28;20039;-71
2022/04/09 07:59:30;;;;;;;9.07;1.90;;;7.30;99.90;;;;;;4972761;28;20120;-71
2022/04/09 08:01:56;;;;;;;9.50;1.80;;;7.60;99.90;;;;;;4956014;28;20573;-70
2022/04/09 08:04:21;;;;;;;6.90;1.25;;;7.60;99.90;;;;;;4974106;28;20054;-70
2022/04/09 08:06:47;;;;;;;12.20;1.60;;;7.70;99.90;;;;;;4955249;28;20480;-70
2022/04/09 08:09:13;;;;;;;12.77;1.58;;;8.00;99.90;;;;;;4971698;28;20057;-71
2022/04/09 08:11:39;;;;;;;4.75;1.38;;;8.10;99.90;;;;;;4971928;28;20043;-70
2022/04/09 08:14:05;;;;;;;4.93;1.23;;;8.00;99.90;;;;;;4958649;28;20189;-71
2022/04/09 08:16:31;;;;;;;6.53;1.05;;;8.00;99.90;;;;;;4978375;28;20043;-70
2022/04/09 08:18:57;;;;;;;9.02;1.10;;;8.10;99.90;;;;;;4971385;28;20079;-70
2022/04/09 08:21:23;;;;;;;8.77;1.98;;;8.10;99.90;;;;;;4972562;28;20074;-70
2022/04/09 08:23:48;;;;;;;9.10;1.23;;;8.10;99.90;;;;;;4972378;28;20046;-71
2022/04/09 08:26:14;;;;;;;5.68;1.40;;;8.10;99.90;;;;;;4955405;28;20058;-70
2022/04/09 08:28:40;;;;;;;8.65;2.55;;;8.10;99.90;;;;;;4971613;28;20158;-71
2022/04/09 08:31:07;;;;;;;9.00;1.05;;;8.10;99.90;;;;;;4955546;28;20419;-69
2022/04/09 08:33:33;;;;;;;9.30;1.40;;;8.30;99.90;;;;;;4956098;28;20516;-75
2022/04/09 08:36:03;;;;;;;10.23;1.30;;;8.50;99.90;;;;;;4952367;28;20133;-76
2022/04/09 08:38:30;;;;;;;8.32;1.58;;;8.50;99.90;;;;;;4954096;28;20046;-77
2022/04/09 08:40:56;;;;;;;10.13;1.50;;;8.30;99.90;;;;;;4952498;28;20653;-78
2022/04/09 08:43:22;;;;;;;8.57;1.40;;;8.10;99.90;;;;;;4971236;28;20130;-75
2022/04/09 08:45:49;;;;;;;10.65;1.63;;;8.40;99.90;;;;;;4952189;28;20046;-76
2022/04/09 08:48:16;;;;;;;5.10;1.10;;;7.90;99.90;;;;;;4954637;28;20038;-77
2022/04/09 08:50:45;;;;;;;7.40;1.08;;;7.30;99.90;;;;;;4973357;28;20054;-78
2022/04/09 08:53:11;;;;;;;4.65;0.70;;;6.80;99.90;;;;;;4968906;28;20054;-77
2022/04/09 08:55:37;;;;;;;3.45;0.73;;;6.70;99.90;;;;;;4969580;28;20042;-79
2022/04/09 08:58:04;;;;;;;6.10;0.70;;;6.50;99.90;;;;;;4969579;28;20054;-81
2022/04/09 09:00:30;;;;;;;3.05;0.57;;;6.50;99.90;;;;;;4970297;28;20112;-77
2022/04/09 09:02:58;;;;;;;2.50;0.73;;;6.40;99.90;;;;;;4971304;28;20042;-79
2022/04/09 09:05:45;;;;;;;1.67;0.30;;;6.30;99.90;;;;;;4955348;28;20381;-76
2022/04/09 09:08:11;;;;;;;1.58;0.45;;;6.30;99.90;;;;;;4954865;28;20038;-79
2022/04/09 09:10:38;;;;;;;0.63;0.40;;;6.80;99.90;;;;;;4970033;28;20054;-80
2022/04/09 09:13:11;;;;;;;1.65;0.70;;;6.90;99.90;;;;;;4954989;28;20130;-74
2022/04/09 09:15:53;;;;;;;3.10;0.68;;;7.60;99.90;;;;;;4953994;28;20043;-75
2022/04/09 09:18:21;;;;;;;;;;;8.20;99.90;;;;;;4970469;28;20049;-77
2022/04/09 09:21:00;;;;;;;11.05;1.50;;;8.20;99.90;;;;;;4971013;28;20389;-84
2022/04/09 09:23:29;;;;;;;5.60;0.90;;;6.80;99.90;;;;;;4972100;28;20043;-82
2022/04/09 09:25:57;;;;;;;4.28;0.98;;;6.10;99.90;;;;;;4969894;28;20061;-78
2022/04/09 09:28:33;;;;;;;6.43;0.80;;;6.00;99.90;;;;;;4970209;28;20129;-80
2022/04/09 09:31:00;;;;;;;2.13;0.82;;;5.90;99.90;;;;;;4970513;28;20061;-81
2022/04/09 09:33:27;;;;;;;3.95;0.70;;;5.30;99.90;;;;;;4970802;28;20051;-74
2022/04/09 09:35:54;;;;;;;5.53;1.00;;;5.50;99.90;;;;;;4969580;28;20448;-79
2022/04/09 09:38:28;;;;;;;3.05;0.80;;;5.70;99.90;;;;;;4954101;28;20133;-77
2022/04/09 09:40:58;;;;;;;7.80;1.30;;;5.30;99.90;;;;;;4969830;28;20042;-76
2022/04/09 09:43:26;;;;;;;4.25;0.95;;;5.30;99.90;;;;;;4970507;28;20406;-84
2022/04/09 09:45:54;;;;;;;4.30;0.90;;;5.70;99.90;;;;;;4954674;28;20055;-88
2022/04/09 09:48:20;;;;;;;5.72;1.00;;;6.00;99.90;;;;;;4954907;28;20035;-82
2022/04/09 09:50:45;;;;;;;4.28;0.98;;;6.30;99.90;;;;;;4971663;28;20416;-75
2022/04/09 09:53:11;;;;;;;5.32;0.90;;;6.60;99.90;;;;;;4970048;28;20046;-80
2022/04/09 09:55:44;;;;;;;4.32;0.73;;;7.10;99.90;;;;;;4971846;28;20158;-84
2022/04/09 09:58:16;;;;;;;4.30;1.13;;;7.20;99.90;;;;;;4973871;28;20073;-82
2022/04/09 10:00:46;;;;;;;3.55;0.80;;;7.50;99.90;;;;;;4972435;28;20480;-76
2022/04/09 10:03:13;;;;;;;2.20;0.70;;;7.80;99.90;;;;;;4957214;28;20051;-76
2022/04/09 10:05:40;;;;;;;6.20;1.17;;;7.90;99.90;;;;;;4972863;28;20456;-78
2022/04/09 10:08:07;;;;;;;4.22;0.80;;;8.40;99.90;;;;;;4973408;28;20118;-81
2022/04/09 10:10:37;;;;;;;9.15;1.20;;;8.70;99.90;;;;;;4956319;28;20042;-77
2022/04/09 10:13:04;;;;;;;5.63;1.13;;;9.20;99.90;;;;;;4972065;28;20043;-72
2022/04/09 10:15:31;;;;;;;9.65;1.30;;;9.50;99.90;;;;;;4972724;28;20130;-84
2022/04/09 10:18:01;;;;;;;10.02;0.80;;;9.20;99.90;;;;;;4974505;28;20042;-87
2022/04/09 10:20:29;;;;;;;4.57;0.60;;;8.30;99.90;;;;;;4974316;28;20047;-83
2022/04/09 10:23:00;;;;;;;5.85;0.90;;;7.20;99.90;;;;;;4973377;28;20138;-82
2022/04/09 10:25:28;;;;;;;6.40;0.88;;;6.90;99.90;;;;;;4974701;28;20049;-89
2022/04/09 10:28:00;;;;;;;6.65;0.90;;;6.70;99.90;;;;;;4974750;28;20042;-86
2022/04/09 10:30:28;;;;;;;6.43;1.40;;;6.70;99.90;;;;;;4955879;28;20135;-82
2022/04/09 10:32:58;;;;;;;4.70;0.70;;;6.80;99.90;;;;;;4956630;28;20066;-87
2022/04/09 10:35:41;;;;;;;5.78;0.70;;;7.00;99.90;;;;;;4973086;28;20097;-81
2022/04/09 10:38:07;;;;;;;3.55;0.65;;;7.30;99.90;;;;;;4974068;28;20039;-81
2022/04/09 10:40:33;;;;;;;2.88;0.70;;;7.50;99.90;;;;;;4975218;28;20057;-86
2022/04/09 10:43:01;;;;;;;2.70;0.73;;;7.70;99.90;;;;;;4974048;28;20046;-80
2022/04/09 10:45:28;;;;;;;5.72;0.63;;;7.80;99.90;;;;;;4974228;28;20078;-90
2022/04/09 10:48:11;;;;;;;1.85;0.40;;;7.90;99.90;;;;;;4974763;28;20042;-82
2022/04/09 10:51:01;;;;;;;1.58;0.50;;;7.90;99.90;;;;;;4974462;28;20046;-78
2022/04/09 10:53:31;;;;;;;1.48;0.50;;;8.00;99.90;;;;;;4971949;28;20046;-76
2022/04/09 10:56:20;;;;;;;4.10;0.60;;;8.20;99.90;;;;;;4971763;28;20046;-77
2022/04/09 10:59:01;;;;;;;3.97;0.63;;;8.20;99.90;;;;;;4972028;28;20065;-75
2022/04/09 11:01:48;;;;;;;2.03;0.40;;;8.50;99.90;;;;;;4956383;28;20097;-74
2022/04/09 11:04:30;;;;;;;2.00;0.47;;;8.50;99.90;;;;;;4972389;28;20118;-69
2022/04/09 11:07:19;;;;;;;1.60;0.70;;;8.40;99.90;;;;;;4971651;28;20566;-75
2022/04/09 11:09:58;;;;;;;2.25;0.50;;;8.40;99.90;;;;;;4950211;28;20057;-74
2022/04/09 11:12:28;;;;;;;3.40;0.50;;;8.50;99.90;;;;;;4967170;28;20053;-75
2022/04/09 11:15:00;;;;;;;3.30;0.50;;;8.80;99.90;;;;;;4957184;28;20050;-74
2022/04/09 11:17:31;;;;;;;2.83;0.57;;;9.00;99.90;;;;;;4972210;28;20795;-74
2022/04/09 11:20:04;;;;;;;2.47;0.52;;;9.20;99.90;;;;;;4956627;28;20065;-73
2022/04/09 11:22:32;;;;;;;2.65;0.60;;;9.30;99.90;;;;;;4971073;28;20047;-72
2022/04/09 11:24:58;;;;;;;4.28;0.70;;;9.30;99.90;;;;;;4971423;28;20499;-73
2022/04/09 11:27:26;;;;;;;5.00;0.82;;;9.30;99.90;;;;;;4970748;28;20047;-72
2022/04/09 11:29:54;;;;;;;2.75;0.85;;;9.40;99.90;;;;;;4971872;28;20121;-71
2022/04/09 11:32:20;;;;;;;4.18;0.55;;;9.50;99.90;;;;;;4971732;28;20130;-76
2022/04/09 11:34:51;;;;;;;3.85;0.80;;;9.70;99.90;;;;;;4953730;28;20053;-75
2022/04/09 11:37:17;;;;;;;5.97;0.90;;;9.90;99.90;;;;;;4970552;28;20533;-73
2022/04/09 11:39:45;;;;;;;4.13;1.20;;;10.00;99.90;;;;;;4971036;28;20049;-72
2022/04/09 11:42:11;;;;;;;5.80;0.90;;;10.10;99.90;;;;;;4971507;28;20043;-73
2022/04/09 11:44:40;;;;;;;5.20;0.90;;;10.10;99.90;;;;;;4971462;28;20078;-74
2022/04/09 11:47:16;;;;;;;7.28;0.88;;;10.00;99.90;;;;;;4971068;28;20054;-76
2022/04/09 11:49:50;;;;;;;6.95;1.50;;;10.10;99.90;;;;;;4972088;28;20046;-76
2022/04/09 11:52:27;;;;;;;7.32;1.00;;;10.40;99.90;;;;;;4970983;28;20404;-76
2022/04/09 11:54:53;;;;;;;6.05;0.90;;;10.80;99.90;;;;;;4971685;28;20051;-75
2022/04/09 11:57:19;;;;;;;6.60;1.17;;;10.90;99.90;;;;;;4971624;28;20488;-76
2022/04/09 11:59:54;;;;;;;6.70;1.10;;;10.90;99.90;;;;;;4955977;28;20126;-75
2022/04/09 12:02:22;;;;;;;8.93;1.40;;;11.00;99.90;;;;;;4971206;28;20411;-76
2022/04/09 12:04:49;;;;;;;7.35;1.48;;;11.20;99.90;;;;;;4971104;28;20061;-74
2022/04/09 12:07:15;;;;;;;9.30;1.63;;;11.30;99.90;;;;;;4953319;28;20137;-75
2022/04/09 12:09:42;;;;;;;6.43;1.10;;;11.80;99.90;;;;;;4970820;28;20054;-72
2022/04/09 12:12:08;;;;;;;6.90;1.27;;;11.90;99.90;;;;;;4955408;28;21711;-71
2022/04/09 12:14:34;;;;;;;4.63;1.30;;;12.10;99.90;;;;;;4970390;28;20404;-71
2022/04/09 12:17:15;;;;;;;3.85;0.73;;;11.80;99.90;;;;;;4970818;28;20054;-71
2022/04/09 12:19:44;;;;;;;6.73;1.10;;;11.10;99.90;;;;;;4969586;28;20042;-71
2022/04/09 12:22:21;;;;;;;5.50;1.02;;;10.70;99.90;;;;;;4972283;28;20050;-70
2022/04/09 12:24:55;;;;;;;7.07;1.27;;;10.50;99.90;;;;;;4970846;28;20423;-71
2022/04/09 12:27:42;;;;;;;7.05;1.08;;;10.40;99.90;;;;;;4954139;28;20129;-71
2022/04/09 12:30:09;;;;;;;6.93;1.20;;;10.30;99.90;;;;;;4954273;28;20054;-71
2022/04/09 12:32:35;;;;;;;5.85;1.13;;;10.30;99.90;;;;;;4970492;28;20050;-72
2022/04/09 12:35:08;;;;;;;9.52;1.40;;;10.30;99.90;;;;;;4970578;28;20391;-71
2022/04/09 12:37:45;;;;;;;5.70;1.00;;;10.40;99.90;;;;;;4970121;28;20478;-71
2022/04/09 12:40:22;;;;;;;7.15;0.93;;;10.40;99.90;;;;;;4969964;28;20097;-71
2022/04/09 12:42:48;;;;;;;6.47;1.33;;;10.10;99.90;;;;;;4971123;28;20050;-71
2022/04/09 12:45:24;;;;;;;5.03;1.02;;;9.80;99.90;;;;;;4971777;28;20772;-72
2022/04/09 12:48:02;;;;;;;6.47;1.15;;;9.50;99.90;;;;;;4970164;28;20058;-71
2022/04/09 12:50:30;;;;;;;5.82;1.25;;;10.00;99.90;;;;;;4971713;28;20050;-72
2022/04/09 12:52:58;;;;;;;9.40;1.30;;;10.40;99.90;;;;;;4970871;28;20078;-73
2022/04/09 12:55:25;;;;;;;8.40;1.10;;;10.90;99.90;;;;;;4969538;28;20047;-72
2022/04/09 12:57:52;;;;;;;3.78;1.00;;;10.80;99.90;;;;;;4954433;28;20043;-73
2022/04/09 13:00:18;;;;;;;5.65;1.10;;;10.50;99.90;;;;;;4953938;28;20062;-73